Westmoreland, New Hampshire
Current Conditions -  °F | °C
As of 6:55 PM on Saturday 22 Nov 2014 (Local Time) from KEEN Reporting Station
Overcast Overcast  
Wind Chill: 32°   Ceiling: 3900
Heat Index: 39°   Visibility: 10mi
Dew Point: 10°   Wind: 10mph
Humidity: 31%   Direction: 210°SSW
Pressure: 30.07"   Gusts: 20mph
Location:  42.96°N, 72.44°W
Report Text: KEEN 222355Z AUTO 21009G17KT 10SM BKN039 OVC055 04/M12 A3007 RMK AO1 10040 20000 400401110 57017
Loading
Personal Weather Stations






























Interactive Weather Map New forecast layout! Learn more

10-Day Weather Forecast

Advertisements
Track Severe Weather on mobile